createdAt,value
2023-12-21T00:01:55.982Z,99059.59
2023-12-21T00:04:24.821Z,99063.84
2023-12-21T00:06:53.661Z,99063.75
2023-12-21T00:09:23.685Z,99053.59
2023-12-21T00:11:52.440Z,99047.63
2023-12-21T00:14:21.128Z,99032.38
2023-12-21T00:16:49.907Z,99025.53
2023-12-21T00:19:18.761Z,99039.09
2023-12-21T00:21:47.608Z,99028.09
2023-12-21T00:24:16.380Z,99025.47
2023-12-21T00:26:46.455Z,99022.09
2023-12-21T00:29:15.478Z,99025.47
2023-12-21T00:31:44.339Z,99016.94
2023-12-21T00:34:13.173Z,99017.78
2023-12-21T00:36:41.866Z,98995.78
2023-12-21T00:39:11.592Z,98995.78
2023-12-21T00:41:40.234Z,98992.25
2023-12-21T00:44:10.313Z,98966.94
2023-12-21T00:46:39.021Z,98958.41
2023-12-21T00:49:08.138Z,98952.50
2023-12-21T00:51:36.856Z,98948.31
2023-12-21T00:54:05.634Z,98929.63
2023-12-21T00:56:34.312Z,98927.97
2023-12-21T00:59:05.288Z,98925.44
2023-12-21T01:01:35.351Z,98922.19
2023-12-21T01:04:04.177Z,98924.72
2023-12-21T01:06:32.818Z,98922.19
2023-12-21T01:09:01.522Z,98923.09
2023-12-21T01:11:30.254Z,98918.09
2023-12-21T01:13:58.915Z,98917.22
2023-12-21T01:16:27.682Z,98918.00
2023-12-21T01:18:57.957Z,98918.00
2023-12-21T01:21:25.955Z,98910.38
2023-12-21T01:23:54.718Z,98904.41
2023-12-21T01:26:23.360Z,98897.59
2023-12-21T01:28:52.102Z,98898.41
2023-12-21T01:31:21.473Z,98872.16
2023-12-21T01:33:50.439Z,98883.16
2023-12-21T01:36:20.424Z,98867.94
2023-12-21T01:38:49.132Z,98869.53
2023-12-21T01:41:17.770Z,98878.91
2023-12-21T01:43:46.515Z,98875.56
2023-12-21T01:46:15.263Z,98867.81
2023-12-21T01:48:45.558Z,98863.66
2023-12-21T01:51:14.663Z,98851.75
2023-12-21T01:53:45.989Z,98834.78
2023-12-21T01:56:15.284Z,98838.22
2023-12-21T01:58:44.449Z,98847.50
2023-12-21T02:01:14.084Z,98859.38
2023-12-21T02:03:42.841Z,98855.94
2023-12-21T02:06:12.861Z,98838.97
2023-12-21T02:08:41.493Z,98836.44
2023-12-21T02:11:12.657Z,98827.06
2023-12-21T02:13:41.347Z,98826.28
2023-12-21T02:16:15.130Z,98822.00
2023-12-21T02:18:44.724Z,98817.72
2023-12-21T02:21:15.195Z,98822.00
2023-12-21T02:23:45.269Z,98827.06
2023-12-21T02:26:19.501Z,98822.78
2023-12-21T02:28:48.160Z,98822.78
2023-12-21T02:31:16.885Z,98825.25
2023-12-21T02:33:45.719Z,98812.53
2023-12-21T02:36:14.561Z,98799.81
2023-12-21T02:38:43.242Z,98792.13
2023-12-21T02:41:11.977Z,98769.25
2023-12-21T02:43:42.041Z,98763.34
2023-12-21T02:46:10.872Z,98774.34
2023-12-21T02:48:39.569Z,98765.78
2023-12-21T02:51:08.300Z,98763.25
2023-12-21T02:53:36.963Z,98755.63
2023-12-21T02:56:06.537Z,98753.91
2023-12-21T02:58:35.456Z,98743.75
2023-12-21T03:01:06.236Z,98745.47
2023-12-21T03:03:35.044Z,98742.81
2023-12-21T03:06:04.387Z,98755.53
2023-12-21T03:08:33.024Z,98750.44
2023-12-21T03:11:01.713Z,98736.94
2023-12-21T03:13:30.471Z,98744.44
2023-12-21T03:15:59.143Z,98737.66
2023-12-21T03:18:30.387Z,98741.81
2023-12-21T03:20:59.018Z,98719.88
2023-12-21T03:23:27.676Z,98727.50
2023-12-21T03:25:56.300Z,98731.75
2023-12-21T03:28:25.034Z,98737.66
2023-12-21T03:30:54.319Z,98730.84
2023-12-21T03:33:23.536Z,98719.78
2023-12-21T03:35:53.823Z,98713.84
2023-12-21T03:38:22.532Z,98703.69
2023-12-21T03:40:51.172Z,98690.19
2023-12-21T03:43:19.898Z,98689.28
2023-12-21T03:45:48.693Z,98690.06
2023-12-21T03:48:18.294Z,98680.72
2023-12-21T03:50:46.981Z,98664.66
2023-12-21T03:53:18.170Z,98668.09
2023-12-21T03:55:46.927Z,98671.47
2023-12-21T03:58:15.801Z,98675.63
2023-12-21T04:00:44.473Z,98678.09
2023-12-21T04:03:13.310Z,98671.38
2023-12-21T04:05:42.128Z,98651.06
2023-12-21T04:08:10.772Z,98646.78
2023-12-21T04:10:40.851Z,98658.66
2023-12-21T04:13:09.775Z,98656.13
2023-12-21T04:15:38.445Z,98646.78
2023-12-21T04:18:08.053Z,98645.84
2023-12-21T04:20:39.035Z,98656.72
2023-12-21T04:23:07.734Z,98648.31
2023-12-21T04:25:36.484Z,98631.31
2023-12-21T04:28:07.931Z,98626.22
2023-12-21T04:30:36.693Z,98625.31
2023-12-21T04:33:05.726Z,98624.41
2023-12-21T04:35:34.432Z,98601.53
2023-12-21T04:38:03.093Z,98595.56
2023-12-21T04:40:31.854Z,98593.00
2023-12-21T04:43:00.571Z,98581.94
2023-12-21T04:45:30.768Z,98581.94
2023-12-21T04:47:59.519Z,98592.91
2023-12-21T04:50:29.960Z,98610.59
2023-12-21T04:52:58.669Z,98598.69
2023-12-21T04:55:27.413Z,98590.25
2023-12-21T04:57:56.063Z,98593.59
2023-12-21T05:00:24.704Z,98591.91
2023-12-21T05:02:54.719Z,98586.81
2023-12-21T05:05:24.048Z,98594.44
2023-12-21T05:07:54.366Z,98571.56
2023-12-21T05:10:23.071Z,98572.38
2023-12-21T05:12:52.534Z,98568.91
2023-12-21T05:15:21.193Z,98544.28
2023-12-21T05:17:50.055Z,98551.94
2023-12-21T05:20:20.176Z,98551.94
2023-12-21T05:22:49.138Z,98543.50
2023-12-21T05:25:18.491Z,98541.75
2023-12-21T05:27:47.160Z,98541.75
2023-12-21T05:30:19.250Z,98540.84
2023-12-21T05:32:48.797Z,98520.50
2023-12-21T05:35:19.369Z,98520.50
2023-12-21T05:37:48.040Z,98517.06
2023-12-21T05:40:17.567Z,98520.41
2023-12-21T05:42:46.548Z,98518.69
2023-12-21T05:45:15.580Z,98517.88
2023-12-21T05:47:44.279Z,98510.34
2023-12-21T05:50:13.181Z,98501.81
2023-12-21T05:52:43.324Z,98500.91
2023-12-21T05:55:16.593Z,98496.50
2023-12-21T05:57:46.221Z,98489.69
2023-12-21T06:00:16.474Z,98498.16
2023-12-21T06:02:45.596Z,98488.78
2023-12-21T06:05:14.553Z,98484.53
2023-12-21T06:07:44.685Z,98479.44
2023-12-21T06:10:13.510Z,98462.44
2023-12-21T06:12:42.203Z,98465.00
2023-12-21T06:15:11.480Z,98461.66
2023-12-21T06:17:40.390Z,98463.25
2023-12-21T06:20:11.058Z,98456.56
2023-12-21T06:22:40.006Z,98455.63
2023-12-21T06:25:10.764Z,98450.53
2023-12-21T06:27:39.615Z,98456.47
2023-12-21T06:30:10.183Z,98449.63
2023-12-21T06:32:38.942Z,98438.56
2023-12-21T06:35:08.478Z,98433.47
2023-12-21T06:37:37.326Z,98435.09
2023-12-21T06:40:07.504Z,98426.63
2023-12-21T06:42:37.565Z,98425.72
2023-12-21T06:45:07.943Z,98417.31
2023-12-21T06:47:36.663Z,98423.19
2023-12-21T06:50:06.601Z,98410.47
2023-12-21T06:52:35.491Z,98412.13
2023-12-21T06:55:04.506Z,98408.84
2023-12-21T06:57:33.445Z,98401.09
2023-12-21T07:00:05.647Z,98399.41
2023-12-21T07:02:34.384Z,98396.84
2023-12-21T07:05:02.148Z,98387.50
2023-12-21T07:07:32.115Z,98393.41
2023-12-21T07:10:00.868Z,98398.50
2023-12-21T07:12:29.700Z,98392.56
2023-12-21T07:14:58.350Z,98378.94
2023-12-21T07:17:28.486Z,98383.13
2023-12-21T07:19:57.446Z,98377.09
2023-12-21T07:22:26.211Z,98377.94
2023-12-21T07:24:55.192Z,98388.91
2023-12-21T07:27:23.818Z,98375.28
2023-12-21T07:29:52.516Z,98388.00
2023-12-21T07:32:21.145Z,98385.44
2023-12-21T07:34:51.545Z,98370.19
2023-12-21T07:37:20.241Z,98376.91
2023-12-21T07:39:48.926Z,98382.78
2023-12-21T07:42:18.708Z,98374.25
2023-12-21T07:44:47.558Z,98381.06
2023-12-21T07:47:16.375Z,98354.72
2023-12-21T07:49:45.310Z,98367.31
2023-12-21T07:52:15.465Z,98364.78
2023-12-21T07:54:44.210Z,98363.06
2023-12-21T07:57:14.194Z,98345.25
2023-12-21T07:59:42.947Z,98340.19
2023-12-21T08:02:11.740Z,98342.72
2023-12-21T08:04:42.374Z,98342.72
2023-12-21T08:07:11.284Z,98346.97
2023-12-21T08:09:41.349Z,98342.72
2023-12-21T08:12:10.964Z,98345.25
2023-12-21T08:14:39.641Z,98330.81
2023-12-21T08:17:11.738Z,98325.84
2023-12-21T08:19:40.833Z,98334.25
2023-12-21T08:22:11.361Z,98341.88
2023-12-21T08:24:41.393Z,98337.63
2023-12-21T08:27:10.061Z,98347.81
2023-12-21T08:29:38.657Z,98320.63
2023-12-21T08:32:07.794Z,98315.44
2023-12-21T08:34:36.487Z,98301.81
2023-12-21T08:37:05.655Z,98294.19
2023-12-21T08:39:34.405Z,98287.34
2023-12-21T08:42:04.979Z,98299.16
2023-12-21T08:44:34.807Z,98281.34
2023-12-21T08:47:03.791Z,98280.56
2023-12-21T08:49:32.611Z,98267.84
2023-12-21T08:52:01.709Z,98272.00
2023-12-21T08:54:30.468Z,98273.72
2023-12-21T08:56:59.146Z,98274.56
2023-12-21T08:59:29.333Z,98249.94
2023-12-21T09:01:58.804Z,98231.34
2023-12-21T09:04:27.886Z,98231.22
2023-12-21T09:06:56.585Z,98238.75
2023-12-21T09:09:25.284Z,98233.69
2023-12-21T09:11:54.009Z,98245.47
2023-12-21T09:14:23.827Z,98220.84
2023-12-21T09:16:53.870Z,98224.31
2023-12-21T09:19:22.672Z,98221.66
2023-12-21T09:21:51.365Z,98220.72
2023-12-21T09:24:20.096Z,98217.28
2023-12-21T09:26:48.739Z,98210.44
2023-12-21T09:29:17.465Z,98213.81
2023-12-21T09:31:46.127Z,98205.25
2023-12-21T09:34:16.644Z,98194.28
2023-12-21T09:36:45.419Z,98189.97
2023-12-21T09:39:14.150Z,98179.69
2023-12-21T09:41:53.275Z,98168.72
2023-12-21T09:44:29.465Z,98157.75
2023-12-21T09:46:59.513Z,98163.63
2023-12-21T09:49:31.266Z,98139.00
2023-12-21T09:52:04.141Z,98127.91
2023-12-21T09:54:33.633Z,98127.00
2023-12-21T09:57:03.993Z,98116.03
2023-12-21T09:59:34.289Z,98099.81
2023-12-21T10:02:10.269Z,98085.38
2023-12-21T10:04:43.342Z,98076.94
2023-12-21T10:07:12.630Z,98064.13
2023-12-21T10:09:41.602Z,98033.59
2023-12-21T10:12:10.633Z,98029.31
2023-12-21T10:14:39.422Z,98032.53
2023-12-21T10:17:11.388Z,98025.75
2023-12-21T10:19:47.422Z,98012.91
2023-12-21T10:22:16.550Z,98018.00
2023-12-21T10:24:47.228Z,98032.31
2023-12-21T10:27:16.407Z,98024.56
2023-12-21T10:29:53.442Z,98025.38
2023-12-21T10:32:22.818Z,98026.19
2023-12-21T10:34:55.893Z,98001.56
2023-12-21T10:37:25.944Z,97977.75
2023-12-21T10:39:57.493Z,97988.72
2023-12-21T10:42:26.503Z,97966.53
2023-12-21T10:44:55.725Z,97967.34
2023-12-21T10:47:24.858Z,97960.50
2023-12-21T10:49:55.946Z,97951.16
2023-12-21T10:52:26.012Z,97958.78
2023-12-21T10:54:56.395Z,97970.59
2023-12-21T10:57:26.572Z,97953.69
2023-12-21T10:59:55.990Z,97947.69
2023-12-21T11:02:27.209Z,97940.06
2023-12-21T11:04:57.530Z,97937.50
2023-12-21T11:07:27.568Z,97923.03
2023-12-21T11:09:56.867Z,97904.44
2023-12-21T11:12:25.564Z,97912.06
2023-12-21T11:14:54.317Z,97913.00
2023-12-21T11:17:23.594Z,97903.50
2023-12-21T11:19:54.328Z,97912.06
2023-12-21T11:22:25.470Z,97920.50
2023-12-21T11:25:03.575Z,97911.13
2023-12-21T11:27:33.281Z,97900.94
2023-12-21T11:30:12.195Z,97899.22
2023-12-21T11:32:42.541Z,97892.41
2023-12-21T11:35:21.936Z,97894.03
2023-12-21T11:37:58.111Z,97883.84
2023-12-21T11:40:28.056Z,97891.47
2023-12-21T11:42:57.121Z,97877.84
2023-12-21T11:45:27.541Z,97874.34
2023-12-21T11:47:57.340Z,97865.78
2023-12-21T11:50:31.369Z,97859.78
2023-12-21T11:53:14.010Z,97857.25
2023-12-21T11:55:46.212Z,97832.59
2023-12-21T11:58:21.035Z,97846.13
2023-12-21T12:00:53.133Z,97824.84
2023-12-21T12:03:23.312Z,97823.13
2023-12-21T12:05:54.900Z,97830.63
2023-12-21T12:08:25.817Z,97820.44
2023-12-21T12:10:55.920Z,97817.78
2023-12-21T12:13:24.841Z,97819.41
2023-12-21T12:15:54.564Z,97808.28
2023-12-21T12:18:23.859Z,97807.34
2023-12-21T12:20:54.165Z,97794.63
2023-12-21T12:23:25.249Z,97786.88
2023-12-21T12:25:53.972Z,97777.50
2023-12-21T12:28:25.083Z,97776.59
2023-12-21T12:30:55.588Z,97770.53
2023-12-21T12:33:24.840Z,97765.47
2023-12-21T12:35:53.583Z,97762.00
2023-12-21T12:38:22.824Z,97751.69
2023-12-21T12:40:53.169Z,97760.13
2023-12-21T12:43:22.240Z,97754.34
2023-12-21T12:45:50.960Z,97748.22
2023-12-21T12:48:21.002Z,97745.53
2023-12-21T12:50:49.871Z,97736.16
2023-12-21T12:53:18.683Z,97750.50
2023-12-21T12:55:51.124Z,97748.78
2023-12-21T12:58:24.854Z,97726.69
2023-12-21T13:00:53.978Z,97724.13
2023-12-21T13:03:22.852Z,97729.22
2023-12-21T13:06:01.702Z,97711.41
2023-12-21T13:08:36.461Z,97717.41
2023-12-21T13:11:05.629Z,97707.94
2023-12-21T13:13:35.697Z,97710.47
2023-12-21T13:16:04.648Z,97721.47
2023-12-21T13:18:34.911Z,97696.81
2023-12-21T13:21:04.281Z,97698.56
2023-12-21T13:23:33.626Z,97695.22
2023-12-21T13:26:02.380Z,97690.91
2023-12-21T13:28:31.561Z,97679.00
2023-12-21T13:31:01.857Z,97697.50
2023-12-21T13:33:30.936Z,97701.66
2023-12-21T13:36:01.111Z,97707.53
2023-12-21T13:38:29.839Z,97698.19
2023-12-21T13:40:58.700Z,97688.00
2023-12-21T13:43:27.674Z,97694.69
2023-12-21T13:45:56.424Z,97691.22
2023-12-21T13:48:27.980Z,97678.38
2023-12-21T13:50:56.697Z,97677.56
2023-12-21T13:53:26.550Z,97685.06
2023-12-21T13:55:55.251Z,97680.78
2023-12-21T13:58:24.104Z,97682.41
2023-12-21T14:00:53.462Z,97669.66
2023-12-21T14:03:22.264Z,97653.47
2023-12-21T14:05:52.453Z,97673.84
2023-12-21T14:08:21.391Z,97665.28
2023-12-21T14:10:50.132Z,97666.06
2023-12-21T14:13:18.887Z,97638.88
2023-12-21T14:15:47.627Z,97635.41
2023-12-21T14:18:16.364Z,97641.41
2023-12-21T14:20:49.062Z,97643.97
2023-12-21T14:23:20.425Z,97644.66
2023-12-21T14:25:49.677Z,97639.56
2023-12-21T14:28:18.728Z,97616.66
2023-12-21T14:30:48.250Z,97614.09
2023-12-21T14:33:17.084Z,97618.25
2023-12-21T14:35:49.204Z,97617.31
2023-12-21T14:38:19.889Z,97602.03
2023-12-21T14:40:48.673Z,97600.31
2023-12-21T14:43:17.330Z,97600.19
2023-12-21T14:45:46.202Z,97592.53
2023-12-21T14:48:14.981Z,97594.16
2023-12-21T14:50:43.919Z,97598.28
2023-12-21T14:53:12.630Z,97611.72
2023-12-21T14:55:42.956Z,97616.66
2023-12-21T14:58:12.319Z,97618.28
2023-12-21T15:00:41.203Z,97622.47
2023-12-21T15:03:09.956Z,97623.25
2023-12-21T15:05:38.944Z,97625.53
2023-12-21T15:08:09.554Z,97629.69
2023-12-21T15:10:38.682Z,97609.19
2023-12-21T15:13:11.077Z,97615.22
2023-12-21T15:15:40.091Z,97634.50
2023-12-21T15:18:08.906Z,97626.75
2023-12-21T15:20:37.678Z,97613.09
2023-12-21T15:23:06.417Z,97599.41
2023-12-21T15:25:35.071Z,97598.34
2023-12-21T15:28:03.927Z,97612.72
2023-12-21T15:30:36.376Z,97602.38
2023-12-21T15:33:05.968Z,97603.97
2023-12-21T15:35:34.815Z,97596.22
2023-12-21T15:38:05.396Z,97601.97
2023-12-21T15:40:34.202Z,97618.19
2023-12-21T15:43:03.104Z,97611.25
2023-12-21T15:45:33.125Z,97592.47
2023-12-21T15:48:01.887Z,97599.16
2023-12-21T15:50:30.759Z,97604.16
2023-12-21T15:53:00.032Z,97606.69
2023-12-21T15:55:31.351Z,97609.09
2023-12-21T15:58:00.191Z,97612.44
2023-12-21T16:00:28.813Z,97595.41
2023-12-21T16:02:58.862Z,97601.34
2023-12-21T16:05:27.570Z,97597.84
2023-12-21T16:07:56.423Z,97577.47
2023-12-21T16:10:25.227Z,97573.19
2023-12-21T16:12:54.566Z,97574.78
2023-12-21T16:15:25.256Z,97571.28
2023-12-21T16:17:55.560Z,97577.22
2023-12-21T16:20:26.159Z,97567.81
2023-12-21T16:22:56.585Z,97564.34
2023-12-21T16:25:25.541Z,97584.44
2023-12-21T16:27:54.240Z,97581.09
2023-12-21T16:30:23.336Z,97595.44
2023-12-21T16:32:54.738Z,97594.63
2023-12-21T16:35:23.591Z,97608.97
2023-12-21T16:37:53.856Z,97608.84
2023-12-21T16:40:23.010Z,97595.31
2023-12-21T16:42:52.018Z,97594.25
2023-12-21T16:45:20.758Z,97597.59
2023-12-21T16:47:49.907Z,97595.03
2023-12-21T16:50:19.801Z,97596.66
2023-12-21T16:52:48.867Z,97599.19
2023-12-21T16:55:19.534Z,97595.81
2023-12-21T16:57:48.280Z,97601.63
2023-12-21T17:00:17.721Z,97614.34
2023-12-21T17:02:46.637Z,97623.75
2023-12-21T17:05:15.797Z,97625.34
2023-12-21T17:07:45.576Z,97632.19
2023-12-21T17:10:14.876Z,97632.97
2023-12-21T17:12:45.327Z,97622.66
2023-12-21T17:15:15.005Z,97608.31
2023-12-21T17:17:44.038Z,97618.50
2023-12-21T17:20:14.318Z,97603.22
2023-12-21T17:22:43.185Z,97622.78
2023-12-21T17:25:12.003Z,97626.94
2023-12-21T17:27:40.818Z,97634.59
2023-12-21T17:30:12.288Z,97626.03
2023-12-21T17:32:41.060Z,97618.38
2023-12-21T17:35:10.545Z,97609.91
2023-12-21T17:37:39.614Z,97629.38
2023-12-21T17:40:12.283Z,97633.66
2023-12-21T17:42:40.989Z,97622.53
2023-12-21T17:45:12.402Z,97637.81
2023-12-21T17:47:41.180Z,97642.91
2023-12-21T17:50:11.313Z,97628.56
2023-12-21T17:52:40.057Z,97645.47
2023-12-21T17:55:10.533Z,97651.50
2023-12-21T17:57:39.429Z,97651.50
2023-12-21T18:00:11.938Z,97646.41
2023-12-21T18:02:41.346Z,97629.50
2023-12-21T18:05:11.236Z,97638.06
2023-12-21T18:07:39.912Z,97632.97
2023-12-21T18:10:10.123Z,97627.88
2023-12-21T18:12:38.804Z,97633.81
2023-12-21T18:15:11.423Z,97632.19
2023-12-21T18:17:39.693Z,97640.63
2023-12-21T18:20:10.313Z,97642.38
2023-12-21T18:22:39.123Z,97642.38
2023-12-21T18:25:08.367Z,97640.63
2023-12-21T18:27:37.761Z,97633.09
2023-12-21T18:30:08.683Z,97638.22
2023-12-21T18:32:38.911Z,97656.88
2023-12-21T18:35:10.301Z,97663.69
2023-12-21T18:37:39.098Z,97671.31
2023-12-21T18:40:09.833Z,97662.88
2023-12-21T18:42:38.618Z,97664.59
2023-12-21T18:45:07.997Z,97663.03
2023-12-21T18:47:38.069Z,97663.03
2023-12-21T18:50:08.025Z,97659.50
2023-12-21T18:52:36.844Z,97663.03
2023-12-21T18:55:06.286Z,97672.38
2023-12-21T18:57:35.038Z,97674.28
2023-12-21T19:00:03.808Z,97674.28
2023-12-21T19:02:32.506Z,97683.63
2023-12-21T19:05:03.654Z,97676.13
2023-12-21T19:07:32.719Z,97686.31
2023-12-21T19:10:01.423Z,97694.09
2023-12-21T19:12:30.253Z,97705.22
2023-12-21T19:14:58.885Z,97680.72
2023-12-21T19:17:27.904Z,97699.47
2023-12-21T19:19:56.624Z,97685.91
2023-12-21T19:22:27.018Z,97711.50
2023-12-21T19:24:55.707Z,97726.00
2023-12-21T19:27:24.427Z,97724.38
2023-12-21T19:29:54.093Z,97723.59
2023-12-21T19:32:22.913Z,97723.59
2023-12-21T19:34:51.781Z,97711.63
2023-12-21T19:37:22.772Z,97704.00
2023-12-21T19:39:53.323Z,97713.41
2023-12-21T19:42:22.003Z,97700.66
2023-12-21T19:44:50.964Z,97704.00
2023-12-21T19:47:19.671Z,97700.66
2023-12-21T19:49:48.385Z,97704.00
2023-12-21T19:52:17.442Z,97730.41
2023-12-21T19:54:46.147Z,97758.41
2023-12-21T19:57:16.275Z,97777.88
2023-12-21T19:59:47.729Z,97774.53
2023-12-21T20:02:16.793Z,97780.41
2023-12-21T20:04:45.844Z,97775.31
2023-12-21T20:07:14.676Z,97765.13
2023-12-21T20:09:43.424Z,97766.75
2023-12-21T20:12:12.470Z,97776.94
2023-12-21T20:14:42.623Z,97758.31
2023-12-21T20:17:11.322Z,97759.91
2023-12-21T20:19:41.673Z,97779.47
2023-12-21T20:22:10.511Z,97783.78
2023-12-21T20:24:39.207Z,97776.16
2023-12-21T20:27:08.245Z,97767.69
2023-12-21T20:29:36.962Z,97792.34
2023-12-21T20:32:08.300Z,97789.81
2023-12-21T20:34:37.090Z,97794.91
2023-12-21T20:37:06.328Z,97799.16
2023-12-21T20:39:37.090Z,97824.63
2023-12-21T20:42:06.429Z,97839.13
2023-12-21T20:44:35.157Z,97847.09
2023-12-21T20:47:04.496Z,97867.19
2023-12-21T20:49:34.825Z,97859.81
2023-12-21T20:52:03.574Z,97884.59
2023-12-21T20:54:35.586Z,97873.72
2023-12-21T20:57:04.643Z,97893.31
2023-12-21T20:59:33.988Z,97869.56
2023-12-21T21:02:01.812Z,97914.75
2023-12-21T21:04:31.038Z,97921.56
2023-12-21T21:07:01.200Z,97932.13
2023-12-21T21:09:30.951Z,97943.50
2023-12-21T21:11:59.862Z,97956.47
2023-12-21T21:14:28.950Z,97957.53
2023-12-21T21:16:58.405Z,97959.50
2023-12-21T21:19:27.198Z,97955.47
2023-12-21T21:21:56.193Z,97948.19
2023-12-21T21:24:26.194Z,97965.19
2023-12-21T21:26:54.880Z,97970.41
2023-12-21T21:29:23.613Z,97959.56
2023-12-21T21:31:52.373Z,97956.31
2023-12-21T21:34:21.523Z,97969.16
2023-12-21T21:36:50.527Z,97991.41
2023-12-21T21:39:19.461Z,98013.63
2023-12-21T21:41:51.906Z,98013.84
2023-12-21T21:44:20.562Z,97995.34
2023-12-21T21:46:49.393Z,97993.84
2023-12-21T21:49:18.297Z,97985.53
2023-12-21T21:51:47.610Z,98007.72
2023-12-21T21:54:16.483Z,98013.44
2023-12-21T21:56:45.190Z,98023.03
2023-12-21T21:59:15.495Z,98024.19
2023-12-21T22:01:47.569Z,98046.53
2023-12-21T22:04:17.653Z,98041.66
2023-12-21T22:06:47.222Z,98040.97
2023-12-21T22:09:15.885Z,98035.19
2023-12-21T22:11:44.703Z,98031.16
2023-12-21T22:14:15.780Z,98040.53
2023-12-21T22:16:44.541Z,98023.63
2023-12-21T22:19:13.358Z,98039.94
2023-12-21T22:21:42.172Z,98055.22
2023-12-21T22:24:10.779Z,98073.13
2023-12-21T22:26:39.510Z,98057.06
2023-12-21T22:29:08.618Z,98055.44
2023-12-21T22:31:40.075Z,98050.56
2023-12-21T22:34:08.834Z,98074.53
2023-12-21T22:36:38.374Z,98078.66
2023-12-21T22:39:07.091Z,98063.53
2023-12-21T22:41:35.861Z,98106.78
2023-12-21T22:44:04.630Z,98123.78
2023-12-21T22:46:33.413Z,98122.94
2023-12-21T22:49:03.705Z,98122.28
2023-12-21T22:51:32.477Z,98107.13
2023-12-21T22:54:01.188Z,98108.03
2023-12-21T22:56:29.834Z,98119.84
2023-12-21T22:58:58.573Z,98123.31
2023-12-21T23:01:27.276Z,98113.94
2023-12-21T23:03:56.236Z,98114.88
2023-12-21T23:06:26.292Z,98133.47
2023-12-21T23:08:55.083Z,98126.75
2023-12-21T23:11:23.782Z,98134.28
2023-12-21T23:13:52.649Z,98138.69
2023-12-21T23:16:22.659Z,98120.09
2023-12-21T23:18:51.704Z,98129.44
2023-12-21T23:21:20.463Z,98134.50
2023-12-21T23:23:50.597Z,98127.78
2023-12-21T23:26:20.012Z,98118.56
2023-12-21T23:28:48.715Z,98116.81
2023-12-21T23:31:17.463Z,98115.09
2023-12-21T23:33:46.389Z,98093.13
2023-12-21T23:36:15.586Z,98089.66
2023-12-21T23:38:44.361Z,98091.50
2023-12-21T23:41:14.455Z,98093.22
2023-12-21T23:43:43.103Z,98092.44
2023-12-21T23:46:11.872Z,98091.50
2023-12-21T23:48:40.617Z,98097.41
2023-12-21T23:51:09.550Z,98105.03
2023-12-21T23:53:38.270Z,98108.47
2023-12-21T23:56:07.468Z,98113.56
2023-12-21T23:58:37.519Z,98105.16
